ADDS - METARS form results

Aviation Digital Data Service (ADDS)

Output produced by METARs form (2359 UTC 07 April 2020)
found at http://aviationweather.gov/metar/data/
 
METAR text: KPNT 072335Z AUTO 22012G18KT 10SM CLR 26/15 A2963 RMK AO2 T02570150
Conditions at: KPNT (PONTIAC , IL, US) observed 2335 UTC 07 April 2020
Temperature: 25.7°C (78°F)
Dewpoint: 15.0°C (59°F) [RH = 52%]
Pressure (altimeter): 29.63 inches Hg (1003.5 mb)
Winds: from the SW (220 degrees) at 14 MPH (12 knots; 6.2 m/s)
gusting to 21 MPH (18 knots; 9.3 m/s)
Visibility: 10 or more miles (16+ km)
Ceiling: at least 12,000 feet AGL
Clouds: sky clear below 12,000 feet AGL
Weather: automated observation with no human augmentation;
there may or may not be significant weather present at this time

METAR text: KPNT 072315Z AUTO 22012KT 10SM CLR 26/15 A2963 RMK AO2 LTG DSNT NE T02610149
Conditions at: KPNT (PONTIAC , IL, US) observed 2315 UTC 07 April 2020
Temperature: 26.1°C (79°F)
Dewpoint: 14.9°C (59°F) [RH = 50%]
Pressure (altimeter): 29.63 inches Hg (1003.5 mb)
Winds: from the SW (220 degrees) at 14 MPH (12 knots; 6.2 m/s)
Visibility: 10 or more miles (16+ km)
Ceiling: at least 12,000 feet AGL
Clouds: sky clear below 12,000 feet AGL
Weather: automated observation with no human augmentation;
there may or may not be significant weather present at this time